sensor_id;sensor_type;location;lat;lon;timestamp;P1;durP1;ratioP1;P2;durP2;ratioP2
295;SDS011;132;48.770;9.200;2023-04-22T00:00:54;3.60;;;2.80;;
295;SDS011;132;48.770;9.200;2023-04-22T00:03:20;4.97;;;2.90;;
295;SDS011;132;48.770;9.200;2023-04-22T00:05:47;4.13;;;3.13;;
295;SDS011;132;48.770;9.200;2023-04-22T00:08:14;3.20;;;2.60;;
295;SDS011;132;48.770;9.200;2023-04-22T00:10:41;3.10;;;2.50;;
295;SDS011;132;48.770;9.200;2023-04-22T00:13:07;5.70;;;3.47;;
295;SDS011;132;48.770;9.200;2023-04-22T00:15:34;5.10;;;2.97;;
295;SDS011;132;48.770;9.200;2023-04-22T00:18:01;4.93;;;3.37;;
295;SDS011;132;48.770;9.200;2023-04-22T00:20:27;5.23;;;3.30;;
295;SDS011;132;48.770;9.200;2023-04-22T00:22:54;3.83;;;3.10;;
295;SDS011;132;48.770;9.200;2023-04-22T00:25:20;5.07;;;3.50;;
295;SDS011;132;48.770;9.200;2023-04-22T00:27:47;4.70;;;3.40;;
295;SDS011;132;48.770;9.200;2023-04-22T00:30:14;5.00;;;4.00;;
295;SDS011;132;48.770;9.200;2023-04-22T00:32:40;7.93;;;3.90;;
295;SDS011;132;48.770;9.200;2023-04-22T00:35:07;6.87;;;5.00;;
295;SDS011;132;48.770;9.200;2023-04-22T00:37:34;11.30;;;5.60;;
295;SDS011;132;48.770;9.200;2023-04-22T00:40:00;10.40;;;6.43;;
295;SDS011;132;48.770;9.200;2023-04-22T00:42:27;7.70;;;5.77;;
295;SDS011;132;48.770;9.200;2023-04-22T00:44:54;11.17;;;8.23;;
295;SDS011;132;48.770;9.200;2023-04-22T00:47:22;10.57;;;7.00;;
295;SDS011;132;48.770;9.200;2023-04-22T00:49:52;10.17;;;7.10;;
295;SDS011;132;48.770;9.200;2023-04-22T00:52:19;9.30;;;7.27;;
295;SDS011;132;48.770;9.200;2023-04-22T00:54:46;9.40;;;7.30;;
295;SDS011;132;48.770;9.200;2023-04-22T00:57:15;12.30;;;8.30;;
295;SDS011;132;48.770;9.200;2023-04-22T00:59:43;10.20;;;7.40;;
295;SDS011;132;48.770;9.200;2023-04-22T01:02:11;10.77;;;7.80;;
295;SDS011;132;48.770;9.200;2023-04-22T01:04:37;10.53;;;7.33;;
295;SDS011;132;48.770;9.200;2023-04-22T01:07:04;9.17;;;6.40;;
295;SDS011;132;48.770;9.200;2023-04-22T01:09:31;8.40;;;6.20;;
295;SDS011;132;48.770;9.200;2023-04-22T01:11:58;9.20;;;5.83;;
295;SDS011;132;48.770;9.200;2023-04-22T01:14:26;6.87;;;5.30;;
295;SDS011;132;48.770;9.200;2023-04-22T01:16:53;6.87;;;5.23;;
295;SDS011;132;48.770;9.200;2023-04-22T01:19:21;6.73;;;5.17;;
295;SDS011;132;48.770;9.200;2023-04-22T01:21:51;10.07;;;5.03;;
295;SDS011;132;48.770;9.200;2023-04-22T01:24:19;5.40;;;4.80;;
295;SDS011;132;48.770;9.200;2023-04-22T01:26:46;8.80;;;5.33;;
295;SDS011;132;48.770;9.200;2023-04-22T01:29:13;6.87;;;5.27;;
295;SDS011;132;48.770;9.200;2023-04-22T01:31:41;7.70;;;5.40;;
295;SDS011;132;48.770;9.200;2023-04-22T01:34:08;7.37;;;5.50;;
295;SDS011;132;48.770;9.200;2023-04-22T01:36:35;8.10;;;5.77;;
295;SDS011;132;48.770;9.200;2023-04-22T01:39:01;8.67;;;5.97;;
295;SDS011;132;48.770;9.200;2023-04-22T01:41:28;8.43;;;6.43;;
295;SDS011;132;48.770;9.200;2023-04-22T01:43:56;9.57;;;6.90;;
295;SDS011;132;48.770;9.200;2023-04-22T01:46:23;10.37;;;6.53;;
295;SDS011;132;48.770;9.200;2023-04-22T01:48:50;9.30;;;7.33;;
295;SDS011;132;48.770;9.200;2023-04-22T01:51:17;9.80;;;6.70;;
295;SDS011;132;48.770;9.200;2023-04-22T01:53:48;12.30;;;7.30;;
295;SDS011;132;48.770;9.200;2023-04-22T01:56:15;10.03;;;7.07;;
295;SDS011;132;48.770;9.200;2023-04-22T01:58:42;8.90;;;6.87;;
295;SDS011;132;48.770;9.200;2023-04-22T02:01:13;8.73;;;6.50;;
295;SDS011;132;48.770;9.200;2023-04-22T02:03:39;10.07;;;6.67;;
295;SDS011;132;48.770;9.200;2023-04-22T02:06:07;10.43;;;6.80;;
295;SDS011;132;48.770;9.200;2023-04-22T02:08:34;9.53;;;6.50;;
295;SDS011;132;48.770;9.200;2023-04-22T02:11:01;8.77;;;6.57;;
295;SDS011;132;48.770;9.200;2023-04-22T02:13:37;9.87;;;7.10;;
295;SDS011;132;48.770;9.200;2023-04-22T02:16:07;11.33;;;6.77;;
295;SDS011;132;48.770;9.200;2023-04-22T02:18:34;9.27;;;7.00;;
295;SDS011;132;48.770;9.200;2023-04-22T02:21:01;10.00;;;6.70;;
295;SDS011;132;48.770;9.200;2023-04-22T02:23:27;10.87;;;7.17;;
295;SDS011;132;48.770;9.200;2023-04-22T02:25:54;10.60;;;6.93;;
295;SDS011;132;48.770;9.200;2023-04-22T02:28:21;8.97;;;6.53;;
295;SDS011;132;48.770;9.200;2023-04-22T02:30:48;9.43;;;6.83;;
295;SDS011;132;48.770;9.200;2023-04-22T02:33:14;10.43;;;6.63;;
295;SDS011;132;48.770;9.200;2023-04-22T02:35:41;9.40;;;7.20;;
295;SDS011;132;48.770;9.200;2023-04-22T02:38:09;7.37;;;6.10;;
295;SDS011;132;48.770;9.200;2023-04-22T02:40:35;8.43;;;6.70;;
295;SDS011;132;48.770;9.200;2023-04-22T02:43:02;10.93;;;7.23;;
295;SDS011;132;48.770;9.200;2023-04-22T02:45:29;11.33;;;7.00;;
295;SDS011;132;48.770;9.200;2023-04-22T02:47:56;10.03;;;6.67;;
295;SDS011;132;48.770;9.200;2023-04-22T02:50:23;10.13;;;7.13;;
295;SDS011;132;48.770;9.200;2023-04-22T02:52:49;9.43;;;6.70;;
295;SDS011;132;48.770;9.200;2023-04-22T02:55:16;8.30;;;6.50;;
295;SDS011;132;48.770;9.200;2023-04-22T02:57:42;10.20;;;7.20;;
295;SDS011;132;48.770;9.200;2023-04-22T03:00:09;10.30;;;6.63;;
295;SDS011;132;48.770;9.200;2023-04-22T03:02:36;11.10;;;7.07;;
295;SDS011;132;48.770;9.200;2023-04-22T03:05:10;10.70;;;6.73;;
295;SDS011;132;48.770;9.200;2023-04-22T03:07:36;9.27;;;6.90;;
295;SDS011;132;48.770;9.200;2023-04-22T03:10:03;10.73;;;6.60;;
295;SDS011;132;48.770;9.200;2023-04-22T03:12:30;9.50;;;6.90;;
295;SDS011;132;48.770;9.200;2023-04-22T03:14:57;9.67;;;6.73;;
295;SDS011;132;48.770;9.200;2023-04-22T03:17:31;7.53;;;6.00;;
295;SDS011;132;48.770;9.200;2023-04-22T03:20:01;9.40;;;7.43;;
295;SDS011;132;48.770;9.200;2023-04-22T03:22:28;8.17;;;6.57;;
295;SDS011;132;48.770;9.200;2023-04-22T03:24:57;8.80;;;6.60;;
295;SDS011;132;48.770;9.200;2023-04-22T03:27:27;11.93;;;7.13;;
295;SDS011;132;48.770;9.200;2023-04-22T03:29:54;9.87;;;7.20;;
295;SDS011;132;48.770;9.200;2023-04-22T03:32:21;7.83;;;6.27;;
295;SDS011;132;48.770;9.200;2023-04-22T03:34:59;10.47;;;6.00;;
295;SDS011;132;48.770;9.200;2023-04-22T03:37:26;10.03;;;7.00;;
295;SDS011;132;48.770;9.200;2023-04-22T03:39:54;9.00;;;6.20;;
295;SDS011;132;48.770;9.200;2023-04-22T03:42:21;9.17;;;6.93;;
295;SDS011;132;48.770;9.200;2023-04-22T03:44:47;10.93;;;7.03;;
295;SDS011;132;48.770;9.200;2023-04-22T03:47:18;8.60;;;5.90;;
295;SDS011;132;48.770;9.200;2023-04-22T03:49:51;8.90;;;6.37;;
295;SDS011;132;48.770;9.200;2023-04-22T03:52:18;12.30;;;6.97;;
295;SDS011;132;48.770;9.200;2023-04-22T03:54:52;8.90;;;6.40;;
295;SDS011;132;48.770;9.200;2023-04-22T03:57:20;9.68;;;6.55;;
295;SDS011;132;48.770;9.200;2023-04-22T03:59:46;9.37;;;7.20;;
295;SDS011;132;48.770;9.200;2023-04-22T04:02:14;7.90;;;5.93;;
295;SDS011;132;48.770;9.200;2023-04-22T04:04:42;10.13;;;6.80;;
295;SDS011;132;48.770;9.200;2023-04-22T04:07:09;9.40;;;6.50;;
295;SDS011;132;48.770;9.200;2023-04-22T04:09:35;8.77;;;5.80;;
295;SDS011;132;48.770;9.200;2023-04-22T04:12:02;8.27;;;6.33;;
295;SDS011;132;48.770;9.200;2023-04-22T04:14:34;7.70;;;5.90;;
295;SDS011;132;48.770;9.200;2023-04-22T04:17:02;7.35;;;5.70;;
295;SDS011;132;48.770;9.200;2023-04-22T04:19:32;9.00;;;5.83;;
295;SDS011;132;48.770;9.200;2023-04-22T04:21:58;9.73;;;5.90;;
295;SDS011;132;48.770;9.200;2023-04-22T04:24:27;10.70;;;6.13;;
295;SDS011;132;48.770;9.200;2023-04-22T04:27:01;10.17;;;5.47;;
295;SDS011;132;48.770;9.200;2023-04-22T04:29:36;9.33;;;6.10;;
295;SDS011;132;48.770;9.200;2023-04-22T04:32:09;14.00;;;6.30;;
295;SDS011;132;48.770;9.200;2023-04-22T04:34:35;9.40;;;6.27;;
295;SDS011;132;48.770;9.200;2023-04-22T04:37:04;9.00;;;6.00;;
295;SDS011;132;48.770;9.200;2023-04-22T04:39:40;8.80;;;6.57;;
295;SDS011;132;48.770;9.200;2023-04-22T04:42:08;9.37;;;6.20;;
295;SDS011;132;48.770;9.200;2023-04-22T04:44:45;7.77;;;5.53;;
295;SDS011;132;48.770;9.200;2023-04-22T04:47:13;8.80;;;6.10;;
295;SDS011;132;48.770;9.200;2023-04-22T04:49:41;7.43;;;5.50;;
295;SDS011;132;48.770;9.200;2023-04-22T04:52:08;8.67;;;6.30;;
295;SDS011;132;48.770;9.200;2023-04-22T04:54:37;8.90;;;6.53;;
295;SDS011;132;48.770;9.200;2023-04-22T04:57:04;8.23;;;5.87;;
295;SDS011;132;48.770;9.200;2023-04-22T04:59:32;10.03;;;5.67;;
295;SDS011;132;48.770;9.200;2023-04-22T05:01:58;9.37;;;6.10;;
295;SDS011;132;48.770;9.200;2023-04-22T05:04:25;8.27;;;5.87;;
295;SDS011;132;48.770;9.200;2023-04-22T05:06:53;7.97;;;5.67;;
295;SDS011;132;48.770;9.200;2023-04-22T05:09:20;7.60;;;5.60;;
295;SDS011;132;48.770;9.200;2023-04-22T05:11:49;8.47;;;5.97;;
295;SDS011;132;48.770;9.200;2023-04-22T05:15:42;9.07;;;5.80;;
295;SDS011;132;48.770;9.200;2023-04-22T05:18:09;6.67;;;4.97;;
295;SDS011;132;48.770;9.200;2023-04-22T05:20:36;7.80;;;5.53;;
295;SDS011;132;48.770;9.200;2023-04-22T05:23:04;8.27;;;5.40;;
295;SDS011;132;48.770;9.200;2023-04-22T05:25:31;8.67;;;5.30;;
295;SDS011;132;48.770;9.200;2023-04-22T05:28:03;7.23;;;5.43;;
295;SDS011;132;48.770;9.200;2023-04-22T05:30:39;7.10;;;5.00;;
295;SDS011;132;48.770;9.200;2023-04-22T05:33:05;7.17;;;5.00;;
295;SDS011;132;48.770;9.200;2023-04-22T05:35:36;6.17;;;4.70;;
295;SDS011;132;48.770;9.200;2023-04-22T05:38:03;7.27;;;4.90;;
295;SDS011;132;48.770;9.200;2023-04-22T05:40:32;7.97;;;4.90;;
295;SDS011;132;48.770;9.200;2023-04-22T05:42:59;8.40;;;5.60;;
295;SDS011;132;48.770;9.200;2023-04-22T05:45:26;10.93;;;5.60;;
295;SDS011;132;48.770;9.200;2023-04-22T05:47:53;5.93;;;4.53;;
295;SDS011;132;48.770;9.200;2023-04-22T05:50:21;5.83;;;4.67;;
295;SDS011;132;48.770;9.200;2023-04-22T05:52:54;7.50;;;5.70;;
295;SDS011;132;48.770;9.200;2023-04-22T05:55:20;10.87;;;5.70;;
295;SDS011;132;48.770;9.200;2023-04-22T05:57:47;6.93;;;5.03;;
295;SDS011;132;48.770;9.200;2023-04-22T06:00:40;8.47;;;4.97;;
295;SDS011;132;48.770;9.200;2023-04-22T06:03:24;7.87;;;5.37;;
295;SDS011;132;48.770;9.200;2023-04-22T06:05:50;8.00;;;5.10;;
295;SDS011;132;48.770;9.200;2023-04-22T06:08:19;7.43;;;4.90;;
295;SDS011;132;48.770;9.200;2023-04-22T06:10:49;7.10;;;4.87;;
295;SDS011;132;48.770;9.200;2023-04-22T06:13:16;6.43;;;4.80;;
295;SDS011;132;48.770;9.200;2023-04-22T06:15:43;6.10;;;4.60;;
295;SDS011;132;48.770;9.200;2023-04-22T06:18:09;8.60;;;4.93;;
295;SDS011;132;48.770;9.200;2023-04-22T06:20:36;7.80;;;4.50;;
295;SDS011;132;48.770;9.200;2023-04-22T06:23:04;6.23;;;5.10;;
295;SDS011;132;48.770;9.200;2023-04-22T06:25:31;8.53;;;5.60;;
295;SDS011;132;48.770;9.200;2023-04-22T06:27:58;8.00;;;5.60;;
295;SDS011;132;48.770;9.200;2023-04-22T06:30:25;13.47;;;6.33;;
295;SDS011;132;48.770;9.200;2023-04-22T06:32:53;8.33;;;5.70;;
295;SDS011;132;48.770;9.200;2023-04-22T06:35:20;7.63;;;5.13;;
295;SDS011;132;48.770;9.200;2023-04-22T06:37:47;7.50;;;5.37;;
295;SDS011;132;48.770;9.200;2023-04-22T06:40:15;9.47;;;5.23;;
295;SDS011;132;48.770;9.200;2023-04-22T06:42:51;7.33;;;5.00;;
295;SDS011;132;48.770;9.200;2023-04-22T06:45:36;9.33;;;6.10;;
295;SDS011;132;48.770;9.200;2023-04-22T06:48:26;7.50;;;6.00;;
295;SDS011;132;48.770;9.200;2023-04-22T06:51:16;9.10;;;6.40;;
295;SDS011;132;48.770;9.200;2023-04-22T06:53:44;10.37;;;7.50;;
295;SDS011;132;48.770;9.200;2023-04-22T06:56:15;11.27;;;6.70;;
295;SDS011;132;48.770;9.200;2023-04-22T06:58:41;10.97;;;7.03;;
295;SDS011;132;48.770;9.200;2023-04-22T07:01:08;10.67;;;7.50;;
295;SDS011;132;48.770;9.200;2023-04-22T07:03:39;9.90;;;7.27;;
295;SDS011;132;48.770;9.200;2023-04-22T07:06:09;12.80;;;7.20;;
295;SDS011;132;48.770;9.200;2023-04-22T07:12:00;9.17;;;6.57;;
295;SDS011;132;48.770;9.200;2023-04-22T07:17:33;11.43;;;7.20;;
295;SDS011;132;48.770;9.200;2023-04-22T07:20:00;12.50;;;7.70;;
295;SDS011;132;48.770;9.200;2023-04-22T07:22:27;9.20;;;6.87;;
295;SDS011;132;48.770;9.200;2023-04-22T07:24:54;9.93;;;7.10;;
295;SDS011;132;48.770;9.200;2023-04-22T07:27:21;11.27;;;7.03;;
295;SDS011;132;48.770;9.200;2023-04-22T07:29:47;9.37;;;6.70;;
295;SDS011;132;48.770;9.200;2023-04-22T07:32:14;11.53;;;6.87;;
295;SDS011;132;48.770;9.200;2023-04-22T07:34:41;10.27;;;7.30;;
295;SDS011;132;48.770;9.200;2023-04-22T07:37:07;8.30;;;5.57;;
295;SDS011;132;48.770;9.200;2023-04-22T07:39:34;6.60;;;5.30;;
295;SDS011;132;48.770;9.200;2023-04-22T07:42:01;5.97;;;4.63;;
295;SDS011;132;48.770;9.200;2023-04-22T07:44:28;6.30;;;4.67;;
295;SDS011;132;48.770;9.200;2023-04-22T07:46:55;4.50;;;3.80;;
295;SDS011;132;48.770;9.200;2023-04-22T07:49:22;5.10;;;4.00;;
295;SDS011;132;48.770;9.200;2023-04-22T07:51:49;6.40;;;4.33;;
295;SDS011;132;48.770;9.200;2023-04-22T07:54:16;5.00;;;4.50;;
295;SDS011;132;48.770;9.200;2023-04-22T07:56:43;5.57;;;4.10;;
295;SDS011;132;48.770;9.200;2023-04-22T07:59:10;7.73;;;4.20;;
295;SDS011;132;48.770;9.200;2023-04-22T08:01:36;8.37;;;4.70;;
295;SDS011;132;48.770;9.200;2023-04-22T08:06:55;5.00;;;4.03;;
295;SDS011;132;48.770;9.200;2023-04-22T08:09:22;6.67;;;4.67;;
295;SDS011;132;48.770;9.200;2023-04-22T08:11:51;5.10;;;4.30;;
295;SDS011;132;48.770;9.200;2023-04-22T08:14:21;7.40;;;3.77;;
295;SDS011;132;48.770;9.200;2023-04-22T08:16:50;4.60;;;3.83;;
295;SDS011;132;48.770;9.200;2023-04-22T08:19:17;5.23;;;3.50;;
295;SDS011;132;48.770;9.200;2023-04-22T08:21:48;3.70;;;3.40;;
295;SDS011;132;48.770;9.200;2023-04-22T08:24:16;4.57;;;3.50;;
295;SDS011;132;48.770;9.200;2023-04-22T08:26:43;4.40;;;3.50;;
295;SDS011;132;48.770;9.200;2023-04-22T08:29:10;3.87;;;3.33;;
295;SDS011;132;48.770;9.200;2023-04-22T08:31:37;5.07;;;3.73;;
295;SDS011;132;48.770;9.200;2023-04-22T08:34:04;7.27;;;6.87;;
295;SDS011;132;48.770;9.200;2023-04-22T08:36:31;11.87;;;11.27;;
295;SDS011;132;48.770;9.200;2023-04-22T08:38:57;28.40;;;27.00;;
295;SDS011;132;48.770;9.200;2023-04-22T08:41:24;54.83;;;52.17;;
295;SDS011;132;48.770;9.200;2023-04-22T08:43:52;22.33;;;21.23;;
295;SDS011;132;48.770;9.200;2023-04-22T08:46:20;50.00;;;47.60;;
295;SDS011;132;48.770;9.200;2023-04-22T08:48:49;19.00;;;18.03;;
295;SDS011;132;48.770;9.200;2023-04-22T08:51:17;5.03;;;4.73;;
295;SDS011;132;48.770;9.200;2023-04-22T08:53:55;16.27;;;15.47;;
295;SDS011;132;48.770;9.200;2023-04-22T08:56:23;60.80;;;57.87;;
295;SDS011;132;48.770;9.200;2023-04-22T08:58:58;69.17;;;65.83;;
295;SDS011;132;48.770;9.200;2023-04-22T09:01:28;14.63;;;13.90;;
295;SDS011;132;48.770;9.200;2023-04-22T09:03:57;66.60;;;63.37;;
295;SDS011;132;48.770;9.200;2023-04-22T09:06:25;69.17;;;65.83;;
295;SDS011;132;48.770;9.200;2023-04-22T09:09:43;109.63;;;104.33;;
295;SDS011;132;48.770;9.200;2023-04-22T09:12:12;116.80;;;111.20;;
295;SDS011;132;48.770;9.200;2023-04-22T09:14:44;116.33;;;110.73;;
295;SDS011;132;48.770;9.200;2023-04-22T09:17:16;174.63;;;166.27;;
295;SDS011;132;48.770;9.200;2023-04-22T09:19:57;114.00;;;108.50;;
295;SDS011;132;48.770;9.200;2023-04-22T09:22:37;9.57;;;9.07;;
295;SDS011;132;48.770;9.200;2023-04-22T09:25:13;13.87;;;13.17;;
295;SDS011;132;48.770;9.200;2023-04-22T09:27:41;13.93;;;13.23;;
295;SDS011;132;48.770;9.200;2023-04-22T09:30:08;8.03;;;7.63;;
295;SDS011;132;48.770;9.200;2023-04-22T09:32:38;92.83;;;88.33;;
295;SDS011;132;48.770;9.200;2023-04-22T09:35:08;55.33;;;52.63;;
295;SDS011;132;48.770;9.200;2023-04-22T09:37:59;85.43;;;81.33;;
295;SDS011;132;48.770;9.200;2023-04-22T09:40:47;22.77;;;21.63;;
295;SDS011;132;48.770;9.200;2023-04-22T09:43:17;56.47;;;53.73;;
295;SDS011;132;48.770;9.200;2023-04-22T09:45:45;125.40;;;119.37;;
295;SDS011;132;48.770;9.200;2023-04-22T09:51:31;91.93;;;87.50;;
295;SDS011;132;48.770;9.200;2023-04-22T09:54:11;74.77;;;71.17;;
295;SDS011;132;48.770;9.200;2023-04-22T09:56:46;28.97;;;27.53;;
295;SDS011;132;48.770;9.200;2023-04-22T09:59:26;85.07;;;80.97;;
295;SDS011;132;48.770;9.200;2023-04-22T10:01:59;168.10;;;160.03;;
295;SDS011;132;48.770;9.200;2023-04-22T10:04:29;113.80;;;108.30;;
295;SDS011;132;48.770;9.200;2023-04-22T10:38:09;366.30;;;348.80;;
295;SDS011;132;48.770;9.200;2023-04-22T10:41:30;372.93;;;355.13;;
295;SDS011;132;48.770;9.200;2023-04-22T10:44:53;345.40;;;328.90;;
295;SDS011;132;48.770;9.200;2023-04-22T10:48:01;437.70;;;416.80;;
295;SDS011;132;48.770;9.200;2023-04-22T10:50:30;385.33;;;366.93;;
295;SDS011;132;48.770;9.200;2023-04-22T10:52:58;383.93;;;365.60;;
295;SDS011;132;48.770;9.200;2023-04-22T10:55:49;362.63;;;345.30;;
295;SDS011;132;48.770;9.200;2023-04-22T10:59:14;363.83;;;346.47;;
295;SDS011;132;48.770;9.200;2023-04-22T11:01:44;353.90;;;337.00;;
295;SDS011;132;48.770;9.200;2023-04-22T11:04:20;190.03;;;180.93;;
295;SDS011;132;48.770;9.200;2023-04-22T11:57:34;3.67;;;3.50;;
295;SDS011;132;48.770;9.200;2023-04-22T12:00:02;7.90;;;4.33;;
295;SDS011;132;48.770;9.200;2023-04-22T12:02:30;5.00;;;3.30;;
295;SDS011;132;48.770;9.200;2023-04-22T12:04:58;6.40;;;3.20;;
295;SDS011;132;48.770;9.200;2023-04-22T12:07:26;3.57;;;2.90;;
295;SDS011;132;48.770;9.200;2023-04-22T12:09:53;6.03;;;3.30;;
295;SDS011;132;48.770;9.200;2023-04-22T12:12:23;5.37;;;3.57;;
295;SDS011;132;48.770;9.200;2023-04-22T12:14:50;3.43;;;3.07;;
295;SDS011;132;48.770;9.200;2023-04-22T12:17:24;6.37;;;3.13;;
295;SDS011;132;48.770;9.200;2023-04-22T12:19:54;4.17;;;2.90;;
295;SDS011;132;48.770;9.200;2023-04-22T12:22:52;8.43;;;3.03;;
295;SDS011;132;48.770;9.200;2023-04-22T12:25:19;4.73;;;2.97;;
295;SDS011;132;48.770;9.200;2023-04-22T12:27:46;6.80;;;2.80;;
295;SDS011;132;48.770;9.200;2023-04-22T12:30:16;3.83;;;2.70;;
295;SDS011;132;48.770;9.200;2023-04-22T12:39:10;5.63;;;3.30;;
295;SDS011;132;48.770;9.200;2023-04-22T12:53:48;5.33;;;2.80;;
295;SDS011;132;48.770;9.200;2023-04-22T12:59:33;5.17;;;2.80;;
295;SDS011;132;48.770;9.200;2023-04-22T13:02:06;3.60;;;2.87;;
295;SDS011;132;48.770;9.200;2023-04-22T13:04:38;7.63;;;3.13;;
295;SDS011;132;48.770;9.200;2023-04-22T13:07:06;4.20;;;2.77;;
295;SDS011;132;48.770;9.200;2023-04-22T13:09:37;4.67;;;2.70;;
295;SDS011;132;48.770;9.200;2023-04-22T13:12:24;3.33;;;2.57;;
295;SDS011;132;48.770;9.200;2023-04-22T13:21:51;3.10;;;2.37;;
295;SDS011;132;48.770;9.200;2023-04-22T13:24:43;6.37;;;2.30;;
295;SDS011;132;48.770;9.200;2023-04-22T13:27:14;3.00;;;2.50;;
295;SDS011;132;48.770;9.200;2023-04-22T13:30:04;5.60;;;2.70;;
295;SDS011;132;48.770;9.200;2023-04-22T13:35:05;4.03;;;2.50;;
295;SDS011;132;48.770;9.200;2023-04-22T13:37:35;5.40;;;2.80;;
295;SDS011;132;48.770;9.200;2023-04-22T13:40:02;9.83;;;3.10;;
295;SDS011;132;48.770;9.200;2023-04-22T13:42:31;3.87;;;3.00;;
295;SDS011;132;48.770;9.200;2023-04-22T13:44:58;4.83;;;2.80;;
295;SDS011;132;48.770;9.200;2023-04-22T13:47:25;6.10;;;2.93;;
295;SDS011;132;48.770;9.200;2023-04-22T13:49:57;5.17;;;2.93;;
295;SDS011;132;48.770;9.200;2023-04-22T13:52:33;5.90;;;2.83;;
295;SDS011;132;48.770;9.200;2023-04-22T13:58:01;4.73;;;2.90;;
295;SDS011;132;48.770;9.200;2023-04-22T14:00:28;8.30;;;3.07;;
295;SDS011;132;48.770;9.200;2023-04-22T14:03:01;3.90;;;2.80;;
295;SDS011;132;48.770;9.200;2023-04-22T14:05:33;3.80;;;2.80;;
295;SDS011;132;48.770;9.200;2023-04-22T14:08:03;5.27;;;2.73;;
295;SDS011;132;48.770;9.200;2023-04-22T14:10:30;4.77;;;2.80;;
295;SDS011;132;48.770;9.200;2023-04-22T14:12:57;3.87;;;2.63;;
295;SDS011;132;48.770;9.200;2023-04-22T14:15:24;5.83;;;2.60;;
295;SDS011;132;48.770;9.200;2023-04-22T14:17:50;7.77;;;3.43;;
295;SDS011;132;48.770;9.200;2023-04-22T14:20:18;4.60;;;2.53;;
295;SDS011;132;48.770;9.200;2023-04-22T14:22:44;4.20;;;2.40;;
295;SDS011;132;48.770;9.200;2023-04-22T14:25:12;4.67;;;2.83;;
295;SDS011;132;48.770;9.200;2023-04-22T14:27:39;6.33;;;2.63;;
295;SDS011;132;48.770;9.200;2023-04-22T14:30:06;3.73;;;2.60;;
295;SDS011;132;48.770;9.200;2023-04-22T14:32:33;7.53;;;3.10;;
295;SDS011;132;48.770;9.200;2023-04-22T14:35:04;9.10;;;2.77;;
295;SDS011;132;48.770;9.200;2023-04-22T14:37:31;4.93;;;3.07;;
295;SDS011;132;48.770;9.200;2023-04-22T14:40:01;4.37;;;2.40;;
295;SDS011;132;48.770;9.200;2023-04-22T14:42:28;3.13;;;2.60;;
295;SDS011;132;48.770;9.200;2023-04-22T14:44:55;4.00;;;2.67;;
295;SDS011;132;48.770;9.200;2023-04-22T14:47:22;4.00;;;2.50;;
295;SDS011;132;48.770;9.200;2023-04-22T14:49:49;3.73;;;2.57;;
295;SDS011;132;48.770;9.200;2023-04-22T14:52:16;7.37;;;3.13;;
295;SDS011;132;48.770;9.200;2023-04-22T14:54:43;4.60;;;2.73;;
295;SDS011;132;48.770;9.200;2023-04-22T14:57:10;6.20;;;2.90;;
295;SDS011;132;48.770;9.200;2023-04-22T14:59:37;5.50;;;3.20;;
295;SDS011;132;48.770;9.200;2023-04-22T15:02:03;3.37;;;2.70;;
295;SDS011;132;48.770;9.200;2023-04-22T15:04:31;6.30;;;2.63;;
295;SDS011;132;48.770;9.200;2023-04-22T15:06:58;4.27;;;3.10;;
295;SDS011;132;48.770;9.200;2023-04-22T15:13:19;7.13;;;2.80;;
295;SDS011;132;48.770;9.200;2023-04-22T15:16:15;4.00;;;2.50;;
295;SDS011;132;48.770;9.200;2023-04-22T15:18:44;8.90;;;2.97;;
295;SDS011;132;48.770;9.200;2023-04-22T15:21:12;4.90;;;2.70;;
295;SDS011;132;48.770;9.200;2023-04-22T15:23:43;7.07;;;2.80;;
295;SDS011;132;48.770;9.200;2023-04-22T15:26:12;4.67;;;3.10;;
295;SDS011;132;48.770;9.200;2023-04-22T15:28:44;4.10;;;2.90;;
295;SDS011;132;48.770;9.200;2023-04-22T15:31:19;4.00;;;2.87;;
295;SDS011;132;48.770;9.200;2023-04-22T15:33:47;5.10;;;2.90;;
295;SDS011;132;48.770;9.200;2023-04-22T15:36:15;5.03;;;3.17;;
295;SDS011;132;48.770;9.200;2023-04-22T15:38:44;5.67;;;2.93;;
295;SDS011;132;48.770;9.200;2023-04-22T15:41:12;3.17;;;2.70;;
295;SDS011;132;48.770;9.200;2023-04-22T15:43:38;4.37;;;2.77;;
295;SDS011;132;48.770;9.200;2023-04-22T15:46:06;5.97;;;3.03;;
295;SDS011;132;48.770;9.200;2023-04-22T15:48:35;4.53;;;2.70;;
295;SDS011;132;48.770;9.200;2023-04-22T15:51:02;7.53;;;2.80;;
295;SDS011;132;48.770;9.200;2023-04-22T15:53:29;3.67;;;3.30;;
295;SDS011;132;48.770;9.200;2023-04-22T15:55:56;7.93;;;6.77;;
295;SDS011;132;48.770;9.200;2023-04-22T15:58:23;9.60;;;7.27;;
295;SDS011;132;48.770;9.200;2023-04-22T16:00:50;5.70;;;4.23;;
295;SDS011;132;48.770;9.200;2023-04-22T16:03:17;4.30;;;3.17;;
295;SDS011;132;48.770;9.200;2023-04-22T16:05:44;3.57;;;2.80;;
295;SDS011;132;48.770;9.200;2023-04-22T16:08:11;2.63;;;2.40;;
295;SDS011;132;48.770;9.200;2023-04-22T16:10:38;5.57;;;3.00;;
295;SDS011;132;48.770;9.200;2023-04-22T16:13:05;7.10;;;2.80;;
295;SDS011;132;48.770;9.200;2023-04-22T16:15:32;3.83;;;2.90;;
295;SDS011;132;48.770;9.200;2023-04-22T16:17:59;7.23;;;2.97;;
295;SDS011;132;48.770;9.200;2023-04-22T16:20:26;4.20;;;2.73;;
295;SDS011;132;48.770;9.200;2023-04-22T16:22:53;5.10;;;3.10;;
295;SDS011;132;48.770;9.200;2023-04-22T16:25:20;5.03;;;2.80;;
295;SDS011;132;48.770;9.200;2023-04-22T16:27:47;6.57;;;3.20;;
295;SDS011;132;48.770;9.200;2023-04-22T16:30:14;4.10;;;2.90;;
295;SDS011;132;48.770;9.200;2023-04-22T16:32:41;3.70;;;2.80;;
295;SDS011;132;48.770;9.200;2023-04-22T16:35:08;5.37;;;2.90;;
295;SDS011;132;48.770;9.200;2023-04-22T16:37:36;3.33;;;2.40;;
295;SDS011;132;48.770;9.200;2023-04-22T16:40:03;6.60;;;2.80;;
295;SDS011;132;48.770;9.200;2023-04-22T16:42:32;5.20;;;2.90;;
295;SDS011;132;48.770;9.200;2023-04-22T16:45:00;6.00;;;2.70;;
295;SDS011;132;48.770;9.200;2023-04-22T16:47:27;4.27;;;2.87;;
295;SDS011;132;48.770;9.200;2023-04-22T16:49:53;4.63;;;2.70;;
295;SDS011;132;48.770;9.200;2023-04-22T16:52:20;5.23;;;2.93;;
295;SDS011;132;48.770;9.200;2023-04-22T16:54:47;5.40;;;2.67;;
295;SDS011;132;48.770;9.200;2023-04-22T16:57:16;4.30;;;2.73;;
295;SDS011;132;48.770;9.200;2023-04-22T16:59:43;48.40;;;32.20;;
295;SDS011;132;48.770;9.200;2023-04-22T17:02:11;6.83;;;4.87;;
295;SDS011;132;48.770;9.200;2023-04-22T17:04:41;8.60;;;4.33;;
295;SDS011;132;48.770;9.200;2023-04-22T17:07:08;4.30;;;2.80;;
295;SDS011;132;48.770;9.200;2023-04-22T17:09:36;10.00;;;2.80;;
295;SDS011;132;48.770;9.200;2023-04-22T17:12:06;3.03;;;2.60;;
295;SDS011;132;48.770;9.200;2023-04-22T17:14:38;4.00;;;2.80;;
295;SDS011;132;48.770;9.200;2023-04-22T17:24:20;5.40;;;2.97;;
295;SDS011;132;48.770;9.200;2023-04-22T17:26:50;5.40;;;3.10;;
295;SDS011;132;48.770;9.200;2023-04-22T17:29:19;4.90;;;3.03;;
295;SDS011;132;48.770;9.200;2023-04-22T17:32:10;6.53;;;3.30;;
295;SDS011;132;48.770;9.200;2023-04-22T17:37:59;4.80;;;3.13;;
295;SDS011;132;48.770;9.200;2023-04-22T17:40:27;8.27;;;3.13;;
295;SDS011;132;48.770;9.200;2023-04-22T17:42:54;5.33;;;3.20;;
295;SDS011;132;48.770;9.200;2023-04-22T17:48:37;6.10;;;3.33;;
295;SDS011;132;48.770;9.200;2023-04-22T17:51:17;5.17;;;3.40;;
295;SDS011;132;48.770;9.200;2023-04-22T17:53:48;4.13;;;2.83;;
295;SDS011;132;48.770;9.200;2023-04-22T17:56:14;14.17;;;7.17;;
295;SDS011;132;48.770;9.200;2023-04-22T17:58:41;33.40;;;19.90;;
295;SDS011;132;48.770;9.200;2023-04-22T18:01:33;7.47;;;4.00;;
295;SDS011;132;48.770;9.200;2023-04-22T18:07:06;5.13;;;3.10;;
295;SDS011;132;48.770;9.200;2023-04-22T18:09:33;5.37;;;3.40;;
295;SDS011;132;48.770;9.200;2023-04-22T18:12:04;7.03;;;3.00;;
295;SDS011;132;48.770;9.200;2023-04-22T18:21:33;9.60;;;3.53;;
295;SDS011;132;48.770;9.200;2023-04-22T18:23:59;4.30;;;3.10;;
295;SDS011;132;48.770;9.200;2023-04-22T18:33:34;6.00;;;3.33;;
295;SDS011;132;48.770;9.200;2023-04-22T18:36:01;4.87;;;3.10;;
295;SDS011;132;48.770;9.200;2023-04-22T18:38:28;5.87;;;3.87;;